createdAt,value
2022-12-05T00:01:42.846Z,98891.53
2022-12-05T00:04:12.173Z,98888.22
2022-12-05T00:06:40.438Z,98887.00
2022-12-05T00:09:09.570Z,98887.66
2022-12-05T00:11:39.247Z,98885.69
2022-12-05T00:14:07.595Z,98885.44
2022-12-05T00:16:36.733Z,98886.72
2022-12-05T00:19:05.146Z,98893.41
2022-12-05T00:21:34.211Z,98895.69
2022-12-05T00:24:02.028Z,98897.72
2022-12-05T00:26:28.896Z,98889.53
2022-12-05T00:28:57.793Z,98896.91
2022-12-05T00:31:25.455Z,98905.78
2022-12-05T00:33:52.742Z,98898.94
2022-12-05T00:36:24.867Z,98909.66
2022-12-05T00:38:53.597Z,98904.41
2022-12-05T00:41:23.736Z,98905.25
2022-12-05T00:43:51.722Z,98910.44
2022-12-05T00:46:29.538Z,98915.78
2022-12-05T00:48:57.964Z,98909.22
2022-12-05T00:51:45.366Z,98910.59
2022-12-05T00:54:15.131Z,98910.97
2022-12-05T00:56:42.653Z,98913.00
2022-12-05T00:59:09.527Z,98916.72
2022-12-05T01:01:41.182Z,98913.75
2022-12-05T01:04:11.405Z,98909.38
2022-12-05T01:06:38.753Z,98907.25
2022-12-05T01:09:07.769Z,98900.22
2022-12-05T01:11:40.971Z,98900.22
2022-12-05T01:14:09.719Z,98911.16
2022-12-05T01:16:39.733Z,98908.75
2022-12-05T01:19:12.768Z,98906.53
2022-12-05T01:21:41.182Z,98914.50
2022-12-05T01:24:10.318Z,98917.81
2022-12-05T01:26:38.933Z,98916.63
2022-12-05T01:29:05.985Z,98914.38
2022-12-05T01:31:36.197Z,98917.81
2022-12-05T01:34:06.186Z,98915.50
2022-12-05T01:36:33.901Z,98915.97
2022-12-05T01:39:01.836Z,98920.97
2022-12-05T01:41:32.439Z,98913.19
2022-12-05T01:44:07.365Z,98910.06
2022-12-05T01:46:37.108Z,98913.56
2022-12-05T01:49:14.575Z,98913.56
2022-12-05T01:51:46.587Z,98916.50
2022-12-05T01:54:15.310Z,98914.50
2022-12-05T01:56:46.563Z,98916.78
2022-12-05T01:59:13.707Z,98914.69
2022-12-05T02:01:41.671Z,98915.06
2022-12-05T02:04:09.264Z,98917.44
2022-12-05T02:06:36.518Z,98916.72
2022-12-05T02:09:05.660Z,98913.56
2022-12-05T02:11:34.818Z,98912.09
2022-12-05T02:14:50.140Z,98918.00
2022-12-05T02:17:40.082Z,98913.00
2022-12-05T02:20:36.650Z,98919.28
2022-12-05T02:23:33.559Z,98916.59
2022-12-05T02:26:52.490Z,98913.00
2022-12-05T02:30:17.766Z,98907.00
2022-12-05T02:32:54.101Z,98917.53
2022-12-05T02:35:42.010Z,98913.19
2022-12-05T02:38:32.869Z,98909.59
2022-12-05T02:41:09.294Z,98915.22
2022-12-05T02:43:45.970Z,98909.50
2022-12-05T02:46:20.083Z,98905.41
2022-12-05T02:48:46.930Z,98904.41
2022-12-05T02:51:15.681Z,98908.75
2022-12-05T02:53:44.040Z,98903.00
2022-12-05T02:56:11.294Z,98894.22
2022-12-05T02:58:48.987Z,98897.63
2022-12-05T03:01:15.943Z,98901.69
2022-12-05T03:03:42.974Z,98904.97
2022-12-05T03:06:34.030Z,98894.00
2022-12-05T03:09:21.634Z,98894.59
2022-12-05T03:11:51.915Z,98892.91
2022-12-05T03:14:23.603Z,98896.91
2022-12-05T03:16:57.718Z,98897.44
2022-12-05T03:19:28.237Z,98901.53
2022-12-05T03:22:23.210Z,98905.03
2022-12-05T03:24:50.705Z,98890.34
2022-12-05T03:27:42.996Z,98905.88
2022-12-05T03:30:12.863Z,98897.06
2022-12-05T03:33:14.255Z,98898.09
2022-12-05T03:36:12.119Z,98895.41
2022-12-05T03:38:58.507Z,98901.69
2022-12-05T03:42:03.415Z,98898.00
2022-12-05T03:44:58.127Z,98893.19
2022-12-05T03:47:27.145Z,98905.13
2022-12-05T03:49:59.665Z,98897.75
2022-12-05T03:52:45.929Z,98908.91
2022-12-05T03:55:21.188Z,98909.69
2022-12-05T03:57:56.710Z,98915.69
2022-12-05T04:00:25.383Z,98904.19
2022-12-05T04:03:12.650Z,98907.22
2022-12-05T04:05:45.605Z,98908.16
2022-12-05T04:08:28.920Z,98918.06
2022-12-05T04:11:00.745Z,98907.81
2022-12-05T04:13:35.083Z,98916.13
2022-12-05T04:16:27.563Z,98922.44
2022-12-05T04:19:02.365Z,98926.97
2022-12-05T04:21:40.398Z,98923.34
2022-12-05T04:24:33.557Z,98920.75
2022-12-05T04:27:10.619Z,98936.88
2022-12-05T04:30:00.116Z,98936.31
2022-12-05T04:32:41.438Z,98935.72
2022-12-05T04:35:14.106Z,98947.03
2022-12-05T04:37:43.333Z,98943.72
2022-12-05T04:40:20.176Z,98953.53
2022-12-05T04:42:48.846Z,98954.25
2022-12-05T04:45:18.139Z,98953.06
2022-12-05T04:47:50.859Z,98947.59
2022-12-05T04:50:18.518Z,98955.47
2022-12-05T04:52:50.140Z,98952.22
2022-12-05T04:55:25.961Z,98948.59
2022-12-05T04:58:12.038Z,98949.91
2022-12-05T05:01:12.794Z,98951.19
2022-12-05T05:03:50.701Z,98958.31
2022-12-05T05:06:18.472Z,98951.47
2022-12-05T05:08:54.998Z,98949.44
2022-12-05T05:11:28.255Z,98950.09
2022-12-05T05:13:55.866Z,98955.91
2022-12-05T05:16:29.022Z,98955.47
2022-12-05T05:18:57.183Z,98958.72
2022-12-05T05:21:32.931Z,98961.75
2022-12-05T05:24:00.116Z,98962.50
2022-12-05T05:26:29.447Z,98965.72
2022-12-05T05:28:58.733Z,98964.16
2022-12-05T05:31:25.970Z,98967.03
2022-12-05T05:33:54.593Z,98967.13
2022-12-05T05:36:23.309Z,98966.88
2022-12-05T05:38:53.017Z,98968.53
2022-12-05T05:41:24.794Z,98971.75
2022-12-05T05:43:52.316Z,98968.59
2022-12-05T05:46:23.052Z,98976.25
2022-12-05T05:48:50.265Z,98978.13
2022-12-05T05:51:19.181Z,98984.59
2022-12-05T05:53:46.337Z,98975.91
2022-12-05T05:56:21.852Z,98987.75
2022-12-05T05:58:50.634Z,98985.63
2022-12-05T06:01:22.968Z,98984.78
2022-12-05T06:03:51.258Z,98989.22
2022-12-05T06:06:20.891Z,98986.84
2022-12-05T06:08:48.273Z,98984.34
2022-12-05T06:11:24.891Z,98990.38
2022-12-05T06:13:54.724Z,98991.56
2022-12-05T06:16:22.383Z,98996.66
2022-12-05T06:18:50.314Z,98990.44
2022-12-05T06:21:17.404Z,98998.97
2022-12-05T06:23:44.536Z,98992.03
2022-12-05T06:26:13.676Z,98994.53
2022-12-05T06:28:41.823Z,98991.25
2022-12-05T06:31:14.976Z,99005.00
2022-12-05T06:33:42.914Z,99008.31
2022-12-05T06:36:15.827Z,99000.25
2022-12-05T06:38:43.959Z,99006.19
2022-12-05T06:41:17.561Z,99012.56
2022-12-05T06:43:46.112Z,99018.41
2022-12-05T06:46:16.188Z,99018.22
2022-12-05T06:48:44.241Z,99020.81
2022-12-05T06:51:13.094Z,99018.03
2022-12-05T06:53:41.246Z,99014.59
2022-12-05T06:56:14.570Z,99008.69
2022-12-05T06:58:47.716Z,99017.41
2022-12-05T07:01:36.934Z,99005.88
2022-12-05T07:04:16.128Z,99006.81
2022-12-05T07:06:50.247Z,99006.66
2022-12-05T07:09:20.746Z,99014.25
2022-12-05T07:11:51.637Z,99022.38
2022-12-05T07:14:50.578Z,99031.00
2022-12-05T07:17:07.568Z,99028.78
2022-12-05T07:19:35.563Z,99034.69
2022-12-05T07:22:03.769Z,99021.00
2022-12-05T07:24:31.770Z,99022.94
2022-12-05T07:26:58.497Z,99021.00
2022-12-05T07:29:26.168Z,99016.19
2022-12-05T07:31:54.805Z,99029.06
2022-12-05T07:34:22.272Z,99022.56
2022-12-05T07:36:50.264Z,99033.41
2022-12-05T07:39:17.519Z,99035.00
2022-12-05T07:41:44.364Z,99043.31
2022-12-05T07:44:14.800Z,99050.91
2022-12-05T07:46:45.113Z,99046.81
2022-12-05T07:49:17.088Z,99057.19
2022-12-05T07:51:46.811Z,99062.84
2022-12-05T07:54:15.922Z,99059.69
2022-12-05T07:56:47.512Z,99062.75
2022-12-05T07:59:16.679Z,99070.44
2022-12-05T08:01:43.808Z,99066.91
2022-12-05T08:04:15.260Z,99064.69
2022-12-05T08:06:44.236Z,99077.28
2022-12-05T08:09:12.400Z,99080.25
2022-12-05T08:11:39.328Z,99080.63
2022-12-05T08:14:07.079Z,99085.06
2022-12-05T08:16:37.194Z,99084.31
2022-12-05T08:19:08.447Z,99078.50
2022-12-05T08:21:37.677Z,99089.22
2022-12-05T08:24:07.498Z,99089.50
2022-12-05T08:26:38.342Z,99096.84
2022-12-05T08:29:11.481Z,99098.50
2022-12-05T08:31:45.129Z,99090.31
2022-12-05T08:34:13.392Z,99096.63
2022-12-05T08:36:42.578Z,99097.19
2022-12-05T08:39:15.443Z,99098.88
2022-12-05T08:41:46.698Z,99096.66
2022-12-05T08:44:19.044Z,99098.13
2022-12-05T08:46:49.121Z,99096.47
2022-12-05T08:49:16.573Z,99110.09
2022-12-05T08:51:45.763Z,99103.69
2022-12-05T08:54:16.048Z,99103.69
2022-12-05T08:56:46.011Z,99103.31
2022-12-05T08:59:15.984Z,99112.66
2022-12-05T09:01:45.946Z,99113.41
2022-12-05T09:04:17.280Z,99118.69
2022-12-05T09:06:46.388Z,99124.59
2022-12-05T09:09:14.266Z,99122.22
2022-12-05T09:11:47.974Z,99113.69
2022-12-05T09:14:16.222Z,99113.22
2022-12-05T09:16:46.442Z,99107.28
2022-12-05T09:19:19.260Z,99122.75
2022-12-05T09:21:48.795Z,99125.00
2022-12-05T09:24:16.285Z,99131.47
2022-12-05T09:26:43.123Z,99128.59
2022-12-05T09:29:16.210Z,99129.44
2022-12-05T09:31:45.041Z,99122.78
2022-12-05T09:34:14.392Z,99122.00
2022-12-05T09:36:42.713Z,99129.53
2022-12-05T09:39:11.444Z,99135.38
2022-12-05T09:42:09.610Z,99131.38
2022-12-05T09:45:08.218Z,99133.88
2022-12-05T09:48:14.551Z,99127.50
2022-12-05T09:50:57.039Z,99123.75
2022-12-05T09:53:35.070Z,99129.25
2022-12-05T09:56:37.388Z,99133.72
2022-12-05T09:59:05.906Z,99126.47
2022-12-05T10:01:44.305Z,99127.13
2022-12-05T10:04:58.553Z,99120.69
2022-12-05T10:08:21.813Z,99126.81
2022-12-05T10:11:01.589Z,99125.53
2022-12-05T10:13:49.758Z,99122.81
2022-12-05T10:16:26.060Z,99126.34
2022-12-05T10:21:56.991Z,99126.75
2022-12-05T10:24:31.301Z,99121.25
2022-12-05T10:27:01.267Z,99122.09
2022-12-05T10:29:32.026Z,99122.94
2022-12-05T10:32:20.632Z,99130.34
2022-12-05T10:34:47.694Z,99126.19
2022-12-05T10:37:22.824Z,99135.34
2022-12-05T10:39:52.035Z,99132.75
2022-12-05T10:42:26.702Z,99135.97
2022-12-05T10:44:59.600Z,99135.53
2022-12-05T10:47:26.761Z,99140.72
2022-12-05T10:49:55.543Z,99138.78
2022-12-05T10:52:23.920Z,99137.00
2022-12-05T10:55:04.195Z,99136.63
2022-12-05T10:57:31.000Z,99122.44
2022-12-05T10:59:57.984Z,99126.13
2022-12-05T11:02:28.007Z,99108.16
2022-12-05T11:04:56.567Z,99121.88
2022-12-05T11:07:48.428Z,99122.34
2022-12-05T11:10:30.125Z,99113.69
2022-12-05T11:12:58.790Z,99119.84
2022-12-05T11:15:30.117Z,99125.66
2022-12-05T11:18:00.528Z,99125.13
2022-12-05T11:20:39.123Z,99128.47
2022-12-05T11:23:23.447Z,99128.09
2022-12-05T11:25:50.910Z,99122.50
2022-12-05T11:28:25.603Z,99124.94
2022-12-05T11:31:32.917Z,99121.69
2022-12-05T11:34:20.621Z,99124.00
2022-12-05T11:36:51.609Z,99116.50
2022-12-05T11:39:18.470Z,99118.25
2022-12-05T11:42:04.605Z,99119.59
2022-12-05T11:45:11.822Z,99115.03
2022-12-05T11:48:17.158Z,99106.13
2022-12-05T11:51:13.294Z,99114.19
2022-12-05T11:53:51.640Z,99115.34
2022-12-05T11:56:39.482Z,99116.59
2022-12-05T11:59:25.042Z,99109.34
2022-12-05T12:02:29.090Z,99117.53
2022-12-05T12:05:19.289Z,99112.88
2022-12-05T12:07:54.372Z,99121.00
2022-12-05T12:10:33.501Z,99124.72
2022-12-05T12:13:10.375Z,99133.44
2022-12-05T12:16:19.342Z,99135.66
2022-12-05T12:19:19.048Z,99116.56
2022-12-05T12:21:59.473Z,99122.66
2022-12-05T12:24:57.759Z,99115.81
2022-12-05T12:28:21.068Z,99122.94
2022-12-05T12:31:21.464Z,99139.66
2022-12-05T12:34:09.960Z,99131.59
2022-12-05T12:36:47.001Z,99140.66
2022-12-05T12:39:46.616Z,99129.44
2022-12-05T12:45:52.185Z,99137.91
2022-12-05T12:48:45.268Z,99127.44
2022-12-05T12:51:13.544Z,99126.50
2022-12-05T12:54:34.367Z,99121.56
2022-12-05T12:57:47.332Z,99118.22
2022-12-05T13:01:06.750Z,99119.81
2022-12-05T13:03:39.982Z,99128.00
2022-12-05T13:06:16.556Z,99117.47
2022-12-05T13:08:51.057Z,99118.97
2022-12-05T13:11:18.644Z,99120.28
2022-12-05T13:13:54.614Z,99117.78
2022-12-05T13:16:28.162Z,99115.44
2022-12-05T13:18:56.095Z,99120.06
2022-12-05T13:21:23.149Z,99121.56
2022-12-05T13:23:52.453Z,99116.28
2022-12-05T13:26:19.255Z,99116.56
2022-12-05T13:28:58.627Z,99119.97
2022-12-05T13:31:45.639Z,99119.41
2022-12-05T13:34:39.855Z,99119.91
2022-12-05T13:38:03.292Z,99118.72
2022-12-05T13:40:56.563Z,99111.38
2022-12-05T13:43:26.174Z,99123.22
2022-12-05T13:46:05.266Z,99118.03
2022-12-05T13:48:34.590Z,99121.47
2022-12-05T13:51:06.060Z,99123.84
2022-12-05T13:53:38.187Z,99131.00
2022-12-05T13:56:53.012Z,99128.31
2022-12-05T13:59:57.458Z,99145.69
2022-12-05T14:03:05.035Z,99136.84
2022-12-05T14:05:45.847Z,99140.84
2022-12-05T14:08:44.987Z,99144.00
2022-12-05T14:11:12.366Z,99155.88
2022-12-05T14:13:42.107Z,99147.34
2022-12-05T14:16:46.959Z,99144.75
2022-12-05T14:19:33.984Z,99150.22
2022-12-05T14:22:14.792Z,99142.16
2022-12-05T14:25:04.037Z,99146.88
2022-12-05T14:27:56.419Z,99151.13
2022-12-05T14:30:34.786Z,99144.06
2022-12-05T14:33:02.212Z,99146.56
2022-12-05T14:35:43.386Z,99144.34
2022-12-05T14:38:20.214Z,99143.03
2022-12-05T14:40:47.449Z,99139.31
2022-12-05T14:43:33.319Z,99143.38
2022-12-05T14:46:02.505Z,99135.31
2022-12-05T14:48:34.804Z,99141.19
2022-12-05T14:51:02.297Z,99148.03
2022-12-05T14:53:38.280Z,99146.38
2022-12-05T14:56:41.577Z,99146.16
2022-12-05T14:59:29.271Z,99144.31
2022-12-05T15:02:03.465Z,99141.72
2022-12-05T15:04:42.804Z,99150.44
2022-12-05T15:07:13.139Z,99155.75
2022-12-05T15:10:14.533Z,99158.69
2022-12-05T15:13:14.975Z,99156.09
2022-12-05T15:15:47.300Z,99153.03
2022-12-05T15:18:39.828Z,99160.53
2022-12-05T15:21:27.022Z,99154.91
2022-12-05T15:24:00.075Z,99149.69
2022-12-05T15:26:56.248Z,99157.59
2022-12-05T15:29:28.082Z,99160.81
2022-12-05T15:32:06.812Z,99164.34
2022-12-05T15:34:56.833Z,99164.75
2022-12-05T15:37:26.689Z,99161.69
2022-12-05T15:40:13.659Z,99168.56
2022-12-05T15:42:51.848Z,99159.47
2022-12-05T15:45:29.165Z,99161.97
2022-12-05T15:48:12.896Z,99164.03
2022-12-05T15:50:42.312Z,99165.47
2022-12-05T15:53:40.038Z,99162.06
2022-12-05T15:56:15.478Z,99169.75
2022-12-05T15:58:52.306Z,99174.03
2022-12-05T16:01:26.127Z,99166.94
2022-12-05T16:04:00.037Z,99164.34
2022-12-05T16:06:44.779Z,99169.47
2022-12-05T16:09:20.598Z,99169.75
2022-12-05T16:11:52.328Z,99161.66
2022-12-05T16:14:50.943Z,99157.50
2022-12-05T16:17:07.361Z,99161.56
2022-12-05T16:19:34.075Z,99156.56
2022-12-05T16:22:09.958Z,99158.97
2022-12-05T16:24:45.509Z,99162.38
2022-12-05T16:27:18.289Z,99158.03
2022-12-05T16:29:45.878Z,99161.66
2022-12-05T16:32:21.973Z,99157.19
2022-12-05T16:34:48.981Z,99161.56
2022-12-05T16:37:26.162Z,99161.44
2022-12-05T16:39:53.540Z,99164.56
2022-12-05T16:42:27.901Z,99172.91
2022-12-05T16:45:03.928Z,99170.94
2022-12-05T16:48:14.542Z,99162.38
2022-12-05T16:50:41.320Z,99169.47
2022-12-05T16:53:21.759Z,99167.03
2022-12-05T16:55:48.920Z,99172.06
2022-12-05T16:58:23.343Z,99166.84
2022-12-05T17:00:50.545Z,99166.66
2022-12-05T17:03:34.914Z,99177.97
2022-12-05T17:06:02.340Z,99168.59
2022-12-05T17:08:29.055Z,99171.13
2022-12-05T17:10:55.869Z,99171.03
2022-12-05T17:13:22.738Z,99178.81
2022-12-05T17:15:49.490Z,99171.03
2022-12-05T17:18:18.254Z,99173.63
2022-12-05T17:20:50.284Z,99171.75
2022-12-05T17:23:17.330Z,99182.44
2022-12-05T17:25:52.553Z,99179.00
2022-12-05T17:28:19.455Z,99177.03
2022-12-05T17:30:46.296Z,99180.47
2022-12-05T17:33:15.008Z,99172.16
2022-12-05T17:35:42.009Z,99165.28
2022-12-05T17:38:10.923Z,99170.66
2022-12-05T17:40:38.381Z,99180.25
2022-12-05T17:43:05.802Z,99188.13
2022-12-05T17:45:33.540Z,99187.41
2022-12-05T17:48:00.300Z,99179.59
2022-12-05T17:50:27.818Z,99183.78
2022-12-05T17:53:02.806Z,99185.63
2022-12-05T17:55:32.527Z,99180.72
2022-12-05T17:57:59.460Z,99172.00
2022-12-05T18:00:26.237Z,99173.50
2022-12-05T18:02:53.341Z,99177.97
2022-12-05T18:05:21.838Z,99170.16
2022-12-05T18:07:50.146Z,99178.69
2022-12-05T18:10:19.422Z,99168.50
2022-12-05T18:12:46.757Z,99182.22
2022-12-05T18:15:14.443Z,99177.31
2022-12-05T18:17:41.722Z,99180.16
2022-12-05T18:20:10.577Z,99182.78
2022-12-05T18:22:37.334Z,99175.69
2022-12-05T18:25:05.465Z,99179.25
2022-12-05T18:27:33.297Z,99178.13
2022-12-05T18:29:59.939Z,99179.44
2022-12-05T18:32:26.721Z,99175.06
2022-12-05T18:34:53.424Z,99184.44
2022-12-05T18:37:20.239Z,99177.13
2022-12-05T18:39:46.926Z,99182.47
2022-12-05T18:42:15.406Z,99186.38
2022-12-05T18:44:42.418Z,99183.31
2022-12-05T18:47:09.434Z,99190.19
2022-12-05T18:49:36.156Z,99194.50
2022-12-05T18:52:03.260Z,99190.72
2022-12-05T18:54:30.034Z,99194.97
2022-12-05T18:56:56.735Z,99187.41
2022-12-05T18:59:23.693Z,99196.84
2022-12-05T19:01:50.846Z,99198.50
2022-12-05T19:04:20.173Z,99198.50
2022-12-05T19:06:53.322Z,99199.91
2022-12-05T19:09:23.778Z,99204.25
2022-12-05T19:11:52.113Z,99203.53
2022-12-05T19:14:19.565Z,99207.69
2022-12-05T19:16:49.219Z,99203.94
2022-12-05T19:19:17.624Z,99202.44
2022-12-05T19:21:45.101Z,99203.16
2022-12-05T19:24:14.114Z,99208.91
2022-12-05T19:26:41.390Z,99206.56
2022-12-05T19:29:08.510Z,99211.13
2022-12-05T19:31:38.072Z,99210.31
2022-12-05T19:34:06.823Z,99205.38
2022-12-05T19:36:36.065Z,99210.00
2022-12-05T19:39:27.123Z,99204.81
2022-12-05T19:41:55.337Z,99201.47
2022-12-05T19:44:22.044Z,99208.97
2022-12-05T19:46:49.682Z,99197.56
2022-12-05T19:49:17.478Z,99197.72
2022-12-05T19:51:44.431Z,99199.16
2022-12-05T19:54:12.778Z,99205.34
2022-12-05T19:56:39.613Z,99204.59
2022-12-05T19:59:06.862Z,99207.56
2022-12-05T20:01:36.349Z,99209.69
2022-12-05T20:04:06.276Z,99201.63
2022-12-05T20:06:35.645Z,99196.06
2022-12-05T20:09:03.007Z,99198.03
2022-12-05T20:11:31.537Z,99202.94
2022-12-05T20:14:00.120Z,99200.06
2022-12-05T20:16:28.721Z,99199.13
2022-12-05T20:18:58.291Z,99205.69
2022-12-05T20:21:26.910Z,99205.03
2022-12-05T20:23:55.782Z,99208.72
2022-12-05T20:26:25.232Z,99194.16
2022-12-05T20:28:52.106Z,99199.84
2022-12-05T20:31:23.692Z,99196.22
2022-12-05T20:33:51.510Z,99194.25
2022-12-05T20:36:23.793Z,99193.84
2022-12-05T20:38:58.532Z,99189.28
2022-12-05T20:41:25.504Z,99193.63
2022-12-05T20:43:54.993Z,99199.03
2022-12-05T20:46:22.687Z,99197.25
2022-12-05T20:48:50.598Z,99196.31
2022-12-05T20:51:28.370Z,99200.31
2022-12-05T20:53:55.468Z,99195.50
2022-12-05T20:56:28.478Z,99205.81
2022-12-05T20:58:57.049Z,99204.47
2022-12-05T21:01:25.061Z,99195.84
2022-12-05T21:03:52.629Z,99198.25
2022-12-05T21:06:23.278Z,99196.59
2022-12-05T21:08:51.138Z,99195.94
2022-12-05T21:11:18.029Z,99195.28
2022-12-05T21:13:46.333Z,99203.53
2022-12-05T21:16:16.748Z,99198.34
2022-12-05T21:18:43.725Z,99198.63
2022-12-05T21:21:21.347Z,99208.06
2022-12-05T21:23:53.280Z,99203.13
2022-12-05T21:26:19.997Z,99198.88
2022-12-05T21:28:46.777Z,99198.88
2022-12-05T21:31:22.658Z,99199.59
2022-12-05T21:34:00.234Z,99209.13
2022-12-05T21:36:28.675Z,99206.44
2022-12-05T21:38:56.525Z,99192.28
2022-12-05T21:41:24.792Z,99194.00
2022-12-05T21:43:54.945Z,99197.41
2022-12-05T21:46:23.577Z,99189.19
2022-12-05T21:48:50.595Z,99188.66
2022-12-05T21:51:17.515Z,99191.38
2022-12-05T21:53:44.303Z,99195.28
2022-12-05T21:56:15.663Z,99187.50
2022-12-05T21:58:43.265Z,99195.28
2022-12-05T22:01:11.256Z,99188.19
2022-12-05T22:03:38.707Z,99194.19
2022-12-05T22:06:07.506Z,99189.47
2022-12-05T22:08:34.827Z,99186.13
2022-12-05T22:11:12.533Z,99188.81
2022-12-05T22:13:39.287Z,99186.13
2022-12-05T22:16:07.174Z,99183.53
2022-12-05T22:18:34.221Z,99187.50
2022-12-05T22:21:03.996Z,99192.69
2022-12-05T22:23:31.662Z,99192.50
2022-12-05T22:26:04.236Z,99198.44
2022-12-05T22:28:31.327Z,99195.78
2022-12-05T22:31:01.050Z,99195.28
2022-12-05T22:33:28.460Z,99193.28
2022-12-05T22:35:57.029Z,99203.38
2022-12-05T22:38:24.787Z,99192.69
2022-12-05T22:40:59.219Z,99183.81
2022-12-05T22:43:26.813Z,99182.13
2022-12-05T22:45:53.780Z,99182.78
2022-12-05T22:48:20.621Z,99182.84
2022-12-05T22:50:57.863Z,99172.84
2022-12-05T22:53:25.110Z,99168.56
2022-12-05T22:55:51.908Z,99172.13
2022-12-05T22:58:18.847Z,99173.97
2022-12-05T23:00:46.405Z,99172.50
2022-12-05T23:03:13.259Z,99167.00
2022-12-05T23:05:41.535Z,99169.69
2022-12-05T23:08:08.696Z,99166.16
2022-12-05T23:10:35.548Z,99161.72
2022-12-05T23:13:02.304Z,99162.44
2022-12-05T23:15:29.153Z,99157.69
2022-12-05T23:17:56.478Z,99163.91
2022-12-05T23:20:23.295Z,99162.25
2022-12-05T23:22:50.348Z,99161.81
2022-12-05T23:25:17.089Z,99153.09
2022-12-05T23:27:44.240Z,99158.38
2022-12-05T23:30:12.140Z,99151.59
2022-12-05T23:32:38.895Z,99145.78
2022-12-05T23:35:06.142Z,99147.88
2022-12-05T23:37:32.922Z,99141.13
2022-12-05T23:39:59.861Z,99133.31
2022-12-05T23:42:28.094Z,99140.56
2022-12-05T23:44:54.783Z,99139.47
2022-12-05T23:47:21.522Z,99141.22
2022-12-05T23:49:48.226Z,99134.97
2022-12-05T23:52:14.970Z,99133.69
2022-12-05T23:54:44.790Z,99125.19
2022-12-05T23:57:17.267Z,99122.94
2022-12-05T23:59:44.851Z,99126.28
